sensor_id;sensor_type;location;lat;lon;timestamp;pressure;altitude;pressure_sealevel;temperature;humidity
26915;BME280;14480;52.608;13.416;2022-11-20T18:35:16;139960.44;;;-16.58;100.00
26915;BME280;14480;52.608;13.416;2022-11-20T18:40:20;140192.16;;;-15.62;100.00
26915;BME280;14480;52.608;13.416;2022-11-20T18:45:23;140181.09;;;-15.67;100.00
26915;BME280;14480;52.608;13.416;2022-11-20T18:50:31;140177.41;;;-15.68;100.00
26915;BME280;14480;52.608;13.416;2022-11-20T18:55:36;140194.59;;;-15.61;100.00
26915;BME280;14480;52.608;13.416;2022-11-20T19:00:40;140197.06;;;-15.60;100.00
26915;BME280;14480;52.608;13.416;2022-11-20T19:05:45;140021.69;;;-16.33;100.00
26915;BME280;14480;52.608;13.416;2022-11-20T19:10:51;139831.91;;;-17.12;100.00
26915;BME280;14480;52.608;13.416;2022-11-20T19:16:00;140130.81;;;-15.87;100.00
26915;BME280;14480;52.608;13.416;2022-11-20T19:21:07;140119.78;;;-15.92;100.00
26915;BME280;14480;52.608;13.416;2022-11-20T19:26:11;140098.94;;;-16.01;100.00
26915;BME280;14480;52.608;13.416;2022-11-20T19:31:17;140078.09;;;-16.09;100.00
26915;BME280;14480;52.608;13.416;2022-11-20T19:36:28;139946.97;;;-16.64;100.00
26915;BME280;14480;52.608;13.416;2022-11-20T19:41:33;139808.63;;;-17.21;100.00
26915;BME280;14480;52.608;13.416;2022-11-20T19:46:37;140043.78;;;-16.24;100.00
26915;BME280;14480;52.608;13.416;2022-11-20T19:51:45;139959.22;;;-16.59;100.00
26915;BME280;14480;52.608;13.416;2022-11-20T19:56:51;139336.53;;;-19.17;100.00
26915;BME280;14480;52.608;13.416;2022-11-20T20:01:56;139804.97;;;-17.23;100.00
26915;BME280;14480;52.608;13.416;2022-11-20T20:07:01;139900.47;;;-16.83;100.00
26915;BME280;14480;52.608;13.416;2022-11-20T20:12:07;140026.66;;;-16.31;100.00
26915;BME280;14480;52.608;13.416;2022-11-20T20:17:13;139763.31;;;-17.40;100.00
26915;BME280;14480;52.608;13.416;2022-11-20T20:22:18;139996.00;;;-16.43;100.00
26915;BME280;14480;52.608;13.416;2022-11-20T20:27:25;139858.84;;;-17.00;100.00
26915;BME280;14480;52.608;13.416;2022-11-20T20:32:29;139883.28;;;-16.90;100.00
26915;BME280;14480;52.608;13.416;2022-11-20T20:37:34;139937.19;;;-16.68;100.00
26915;BME280;14480;52.608;13.416;2022-11-20T20:42:38;139928.63;;;-16.71;100.00
26915;BME280;14480;52.608;13.416;2022-11-20T20:47:42;139769.41;;;-17.37;100.00
26915;BME280;14480;52.608;13.416;2022-11-20T20:52:47;139944.53;;;-16.65;100.00
26915;BME280;14480;52.608;13.416;2022-11-20T20:57:51;139939.59;;;-16.67;100.00
26915;BME280;14480;52.608;13.416;2022-11-20T21:02:56;139915.19;;;-16.77;100.00
26915;BME280;14480;52.608;13.416;2022-11-20T21:08:02;139866.19;;;-16.97;100.00
26915;BME280;14480;52.608;13.416;2022-11-20T21:13:23;139595.69;;;-18.10;100.00
26915;BME280;14480;52.608;13.416;2022-11-20T21:18:28;139709.44;;;-17.62;100.00
26915;BME280;14480;52.608;13.416;2022-11-20T21:23:34;139444.09;;;-18.73;100.00
26915;BME280;14480;52.608;13.416;2022-11-20T21:28:38;139578.59;;;-18.17;100.00
26915;BME280;14480;52.608;13.416;2022-11-20T21:33:43;139659.31;;;-17.83;100.00
26915;BME280;14480;52.608;13.416;2022-11-20T21:38:50;139618.94;;;-18.00;100.00
26915;BME280;14480;52.608;13.416;2022-11-20T21:43:55;139538.19;;;-18.34;100.00
26915;BME280;14480;52.608;13.416;2022-11-20T21:49:19;139584.69;;;-18.14;100.00
26915;BME280;14480;52.608;13.416;2022-11-20T21:54:24;139549.19;;;-18.29;100.00
26915;BME280;14480;52.608;13.416;2022-11-20T21:59:28;139479.50;;;-18.58;100.00
26915;BME280;14480;52.608;13.416;2022-11-20T22:04:32;139477.06;;;-18.59;100.00
26915;BME280;14480;52.608;13.416;2022-11-20T22:09:37;139440.44;;;-18.74;100.00
26915;BME280;14480;52.608;13.416;2022-11-20T22:14:43;139516.19;;;-18.43;100.00
26915;BME280;14480;52.608;13.416;2022-11-20T22:19:47;139503.97;;;-18.48;100.00
26915;BME280;14480;52.608;13.416;2022-11-20T22:24:52;139253.44;;;-19.52;100.00
26915;BME280;14480;52.608;13.416;2022-11-20T22:29:57;139386.66;;;-18.97;100.00
26915;BME280;14480;52.608;13.416;2022-11-20T22:35:01;139468.53;;;-18.63;100.00
26915;BME280;14480;52.608;13.416;2022-11-20T22:40:09;139408.63;;;-18.88;100.00
26915;BME280;14480;52.608;13.416;2022-11-20T22:45:16;139423.31;;;-18.81;100.00
26915;BME280;14480;52.608;13.416;2022-11-20T22:50:20;139422.09;;;-18.82;100.00
26915;BME280;14480;52.608;13.416;2022-11-20T22:55:25;139401.28;;;-18.91;100.00
26915;BME280;14480;52.608;13.416;2022-11-20T23:00:28;139403.72;;;-18.90;100.00
